Time;durP1;ratioP1;P1;durP2;ratioP2;P2;SDS_P1;SDS_P2;PMS_P1;PMS_P2;Temp;Humidity;BMP_temperature;BMP_pressure;BME280_temperature;BME280_humidity;BME280_pressure;Samples;Min_cycle;Max_cycle;Signal;HPM_P1;HPM_P2
2021/11/16 05:59:52;;;;;;;;;21.75;17.75;;;;;9.30;67.61;102060.31;5768773;23;45923;-96
2021/11/16 06:13:01;;;;;;;;;26.75;21.50;;;;;9.24;67.19;102059.06;5692843;23;45936;-97
2021/11/16 06:34:07;;;;;;;;;20.33;14.67;;;;;9.34;67.69;102071.09;4399248;23;46011;-95
2021/11/16 06:36:36;;;;;;;;;14.00;13.33;;;;;9.14;67.67;102030.38;4877465;29;45976;-96
2021/11/16 07:25:33;;;;;;;;;16.00;14.25;;;;;9.32;66.01;102064.84;4935665;28;45382;-91
2021/11/16 07:27:59;;;;;;;;;16.67;14.67;;;;;9.30;66.27;102063.84;4915195;28;67684;-87
2021/11/16 07:30:28;;;;;;;;;18.67;14.00;;;;;9.34;66.45;102076.34;4915814;28;47408;-86
2021/11/16 07:33:00;;;;;;;;;18.33;15.00;;;;;9.33;66.56;102065.78;4936689;28;45327;-88
2021/11/16 07:35:30;;;;;;;;;25.25;20.75;;;;;9.37;66.64;102075.66;4918015;28;45558;-85
2021/11/16 07:37:59;;;;;;;;;18.67;17.67;;;;;9.37;66.29;102062.56;4928963;28;45472;-85
2021/11/16 07:40:24;;;;;;;;;27.25;22.25;;;;;9.41;66.11;102066.28;4935145;28;46352;-87
2021/11/16 07:43:12;;;;;;;;;21.50;17.75;;;;;9.42;66.14;102053.31;4936578;28;45474;-87
2021/11/16 07:45:41;;;;;;;;;26.50;18.75;;;;;9.47;66.00;102070.28;4917348;28;45674;-87
2021/11/16 07:48:11;;;;;;;;;21.50;19.50;;;;;9.45;66.07;102069.25;4934949;28;45837;-86
2021/11/16 07:50:37;;;;;;;;;19.75;19.75;;;;;9.53;66.41;102076.75;4913541;28;46509;-87
2021/11/16 07:53:27;;;;;;;;;21.25;21.00;;;;;9.57;66.35;102078.78;4929917;28;45479;-87
2021/11/16 07:56:18;;;;;;;;;24.25;20.50;;;;;9.61;66.52;102081.72;4932593;28;45426;-86
2021/11/16 07:58:51;;;;;;;;;23.25;21.50;;;;;9.61;66.57;102079.09;4935810;28;45492;-87
2021/11/16 08:04:22;;;;;;;;;18.00;17.00;;;;;9.72;66.21;102081.56;4930016;28;45530;-86
2021/11/16 08:12:29;;;;;;;;;20.00;15.33;;;;;9.86;65.84;102100.00;4897011;28;45496;-87
2021/11/16 08:15:02;;;;;;;;;26.00;23.75;;;;;9.86;65.94;102086.88;4902578;28;45405;-87
2021/11/16 08:17:28;;;;;;;;;30.25;22.75;;;;;9.90;65.94;102078.41;4867508;28;45396;-86
2021/11/16 08:19:57;;;;;;;;;26.00;21.67;;;;;9.91;65.92;102088.13;4898460;28;69486;-86
2021/11/16 08:22:23;;;;;;;;;34.00;24.25;;;;;9.92;65.66;102071.59;4871881;28;46164;-87
2021/11/16 08:24:48;;;;;;;;;25.00;22.00;;;;;9.99;65.43;102071.22;4880971;28;65251;-87
2021/11/16 08:27:16;;;;;;;;;22.00;15.00;;;;;10.03;65.41;102068.00;4918944;28;45526;-87
2021/11/16 08:29:43;;;;;;;;;16.50;14.75;;;;;10.06;65.09;102070.81;4895959;28;45419;-87
2021/11/16 08:32:13;;;;;;;;;22.50;16.50;;;;;10.11;65.21;102083.34;4882022;28;45668;-87
2021/11/16 08:34:41;;;;;;;;;21.75;18.75;;;;;10.08;65.33;102072.63;4875071;28;45983;-87
2021/11/16 08:37:07;;;;;;;;;27.25;23.00;;;;;10.13;65.24;102081.72;4902202;28;46074;-86
2021/11/16 08:39:37;;;;;;;;;29.00;20.25;;;;;10.16;65.07;102069.75;4893117;28;45433;-86
2021/11/16 08:42:08;;;;;;;;;22.00;19.00;;;;;10.20;65.04;102059.47;4904731;28;45479;-86
2021/11/16 08:44:37;;;;;;;;;24.00;19.75;;;;;10.25;65.23;102068.56;4914467;28;45762;-86
2021/11/16 08:47:10;;;;;;;;;21.50;18.25;;;;;10.31;64.90;102073.31;4903956;28;45689;-87
2021/11/16 08:49:36;;;;;;;;;21.00;19.25;;;;;10.36;64.56;102070.19;4923941;28;45430;-86
2021/11/16 08:52:08;;;;;;;;;28.00;18.75;;;;;10.39;64.54;102074.72;4933392;28;49245;-86
2021/11/16 08:54:35;;;;;;;;;27.67;23.33;;;;;10.41;64.98;102075.72;4939684;28;45502;-86
2021/11/16 08:57:04;;;;;;;;;21.00;19.75;;;;;10.39;64.35;102066.84;4952804;28;45444;-86
2021/11/16 08:59:33;;;;;;;;;23.00;17.75;;;;;10.44;64.41;102064.53;4951237;28;45458;-85
2021/11/16 09:02:01;;;;;;;;;26.25;21.50;;;;;10.50;64.30;102071.13;4918118;28;45491;-85
2021/11/16 09:04:33;;;;;;;;;19.33;18.67;;;;;10.51;64.48;102061.56;4949739;28;45441;-85
2021/11/16 09:06:59;;;;;;;;;28.00;26.25;;;;;10.55;64.03;102068.84;4949335;28;45481;-86
2021/11/16 09:09:25;;;;;;;;;23.00;20.00;;;;;10.59;63.71;102069.97;4941846;28;45525;-86
2021/11/16 09:12:01;;;;;;;;;21.00;17.67;;;;;10.63;63.69;102074.59;4952033;28;46214;-87
2021/11/16 09:14:27;;;;;;;;;20.33;20.33;;;;;10.65;63.78;102064.19;4943364;28;45437;-86
2021/11/16 09:16:52;;;;;;;;;22.25;19.50;;;;;10.69;63.69;102060.97;4938013;28;45547;-85
2021/11/16 09:19:32;;;;;;;;;19.67;15.00;;;;;10.70;63.58;102053.19;4942787;28;45512;-86
2021/11/16 09:21:58;;;;;;;;;18.67;13.67;;;;;10.73;63.58;102052.47;4952625;28;45588;-85
2021/11/16 09:24:34;;;;;;;;;18.67;17.33;;;;;10.75;63.10;102042.06;4932622;28;45513;-86
2021/11/16 09:27:12;;;;;;;;;15.67;15.00;;;;;10.82;62.43;102044.31;4950066;28;45344;-85
2021/11/16 09:29:38;;;;;;;;;21.67;16.67;;;;;10.86;62.89;102035.81;4957225;28;45456;-88
2021/11/16 09:32:11;;;;;;;;;21.67;18.33;;;;;10.90;62.97;102037.81;4925368;28;47578;-92
2021/11/16 09:34:49;;;;;;;;;17.00;14.33;;;;;10.97;62.97;102033.88;4927200;28;45852;-88
2021/11/16 09:37:19;;;;;;;;;30.33;18.67;;;;;11.06;62.69;102039.72;4921900;28;45498;-89
2021/11/16 09:40:05;;;;;;;;;21.33;18.67;;;;;11.16;62.46;102030.69;4902347;28;45348;-89
2021/11/16 09:42:33;;;;;;;;;23.00;18.00;;;;;11.26;61.94;102029.56;4933129;28;45533;-86
2021/11/16 09:45:04;;;;;;;;;22.00;18.00;;;;;11.29;61.91;102026.22;4932205;28;45835;-87
2021/11/16 09:47:31;;;;;;;;;18.33;17.33;;;;;11.31;62.42;102029.88;4935331;28;45430;-87
2021/11/16 09:49:59;;;;;;;;;21.33;18.67;;;;;11.34;61.67;102032.69;4934034;28;45558;-87
2021/11/16 09:52:29;;;;;;;;;19.33;15.67;;;;;11.37;61.49;102026.72;4918818;28;48350;-91
2021/11/16 09:55:00;;;;;;;;;20.67;17.00;;;;;11.44;61.92;102021.00;4903223;28;45441;-88
2021/11/16 09:57:30;;;;;;;;;24.00;19.33;;;;;11.50;61.97;102029.28;4918182;28;45405;-89
2021/11/16 10:00:10;;;;;;;;;20.75;19.25;;;;;11.59;61.80;102033.31;4919757;28;45540;-87
2021/11/16 10:02:35;;;;;;;;;21.25;17.50;;;;;11.58;61.30;102019.25;4948862;28;45562;-85
2021/11/16 10:05:07;;;;;;;;;25.33;20.00;;;;;11.59;61.40;102025.44;4951107;28;45740;-86
2021/11/16 10:07:34;;;;;;;;;16.33;15.67;;;;;11.59;60.60;102031.59;4919859;28;45491;-86
2021/11/16 10:09:59;;;;;;;;;19.33;14.67;;;;;11.61;61.32;102035.22;4900953;28;45861;-88
2021/11/16 10:12:29;;;;;;;;;22.67;19.67;;;;;11.62;61.40;102044.03;4917441;28;72342;-87
2021/11/16 10:14:54;;;;;;;;;27.00;21.33;;;;;11.56;60.95;102034.03;4902167;28;47434;-87
2021/11/16 10:17:20;;;;;;;;;20.33;17.00;;;;;11.56;61.48;102041.94;4949518;28;45561;-87
2021/11/16 10:19:46;;;;;;;;;23.33;19.33;;;;;11.55;61.51;102042.72;4951515;28;45510;-86
2021/11/16 10:22:12;;;;;;;;;21.00;19.67;;;;;11.53;60.67;102041.72;4919405;28;45545;-88
2021/11/16 10:24:38;;;;;;;;;24.00;21.33;;;;;11.47;61.22;102036.06;4917939;28;45520;-88
2021/11/16 10:27:16;;;;;;;;;23.67;21.33;;;;;11.52;61.22;102042.53;4917782;28;45490;-88
2021/11/16 10:29:42;;;;;;;;;23.33;20.33;;;;;11.50;61.19;102033.66;4954361;28;45415;-88
2021/11/16 10:32:18;;;;;;;;;26.67;20.00;;;;;11.50;61.41;102036.28;4938714;28;45541;-88
2021/11/16 10:34:45;;;;;;;;;24.00;21.33;;;;;11.51;61.28;102039.03;4953680;28;45307;-88
2021/11/16 10:37:11;;;;;;;;;18.67;18.33;;;;;11.50;61.41;102036.28;4938376;28;45715;-88
2021/11/16 10:39:36;;;;;;;;;22.67;17.00;;;;;11.45;61.52;102028.09;4905406;28;46095;-89
2021/11/16 10:42:04;;;;;;;;;24.33;18.67;;;;;11.49;61.22;102031.84;4900096;28;46919;-87
2021/11/16 10:44:31;;;;;;;;;22.33;19.00;;;;;11.42;61.61;102027.00;4937878;28;45668;-88
2021/11/16 10:47:00;;;;;;;;;30.33;16.67;;;;;11.39;60.94;102033.88;4916402;28;45520;-88
2021/11/16 10:49:26;;;;;;;;;19.67;16.33;;;;;11.36;61.65;102033.72;4952709;28;45821;-88
2021/11/16 10:51:51;;;;;;;;;31.67;23.00;;;;;11.35;61.37;102042.41;4920615;28;53116;-88
2021/11/16 10:54:17;;;;;;;;;25.33;19.00;;;;;11.31;61.74;102032.50;4936816;28;45512;-89
2021/11/16 10:56:42;;;;;;;;;25.33;18.33;;;;;11.34;61.99;102043.19;4923543;28;63169;-89
2021/11/16 10:59:15;;;;;;;;;24.25;21.00;;;;;11.32;61.38;102036.94;4929105;28;45561;-88
2021/11/16 11:01:58;;;;;;;;;26.33;21.67;;;;;11.28;61.11;102027.06;4956319;28;46311;-87
2021/11/16 11:04:29;;;;;;;;;20.75;15.50;;;;;11.26;61.58;102028.69;4919493;28;45702;-86
2021/11/16 11:06:54;;;;;;;;;22.33;19.00;;;;;11.23;61.81;102024.13;4937322;28;45665;-87
2021/11/16 11:09:20;;;;;;;;;14.67;11.00;;;;;11.28;61.74;102025.34;4954179;28;45600;-87
2021/11/16 11:11:49;;;;;;;;;23.75;20.00;;;;;11.25;61.70;102017.25;4954914;28;45494;-89
2021/11/16 11:14:35;;;;;;;;;24.75;21.75;;;;;11.29;61.85;102020.97;4921661;28;45393;-88
2021/11/16 11:17:01;;;;;;;;;31.25;29.00;;;;;11.33;61.79;102023.00;4953821;28;45389;-88
2021/11/16 11:19:32;;;;;;;;;29.00;26.25;;;;;11.33;61.97;102019.44;4949889;28;46040;-88
2021/11/16 11:24:48;;;;;;;;;24.00;20.00;;;;;11.33;61.41;102012.47;4943191;28;45557;-91
2021/11/16 11:29:47;;;;;;;;;24.25;21.00;;;;;11.45;61.33;102000.91;4937605;28;45557;-89
2021/11/16 11:32:16;;;;;;;;;22.33;19.33;;;;;11.51;61.34;102006.53;4921218;28;45631;-89
2021/11/16 11:34:47;;;;;;;;;17.67;15.67;;;;;11.48;61.61;101990.56;4936803;28;47384;-91
2021/11/16 11:37:20;;;;;;;;;21.33;19.00;;;;;11.56;61.41;101994.59;4943962;28;45453;-89
2021/11/16 11:40:18;;;;;;;;;20.00;16.33;;;;;11.59;61.25;101991.25;4943361;28;45854;-89
2021/11/16 11:43:03;;;;;;;;;21.67;20.67;;;;;11.65;60.95;101988.97;4882753;28;48660;-88
2021/11/16 11:45:32;;;;;;;;;23.00;18.00;;;;;11.62;61.23;101973.03;4877816;29;45843;-91
2021/11/16 11:48:00;;;;;;;;;28.00;19.67;;;;;11.67;60.79;101987.38;4895442;28;45561;-90
2021/11/16 11:50:44;;;;;;;;;32.33;23.00;;;;;11.66;60.88;101972.38;4905345;28;45426;-90
2021/11/16 11:53:22;;;;;;;;;27.33;21.00;;;;;11.69;61.09;101979.56;4871571;28;45487;-88
2021/11/16 11:55:48;;;;;;;;;21.00;19.67;;;;;11.66;61.10;101966.22;4876242;28;45395;-88
2021/11/16 11:58:15;;;;;;;;;24.33;16.00;;;;;11.68;60.87;101967.22;4898408;28;45509;-89
2021/11/16 12:00:40;;;;;;;;;22.67;18.67;;;;;11.66;60.59;101961.88;4896775;28;45528;-89
2021/11/16 12:03:06;;;;;;;;;22.67;21.33;;;;;11.67;60.96;101970.69;4880764;28;53058;-91
2021/11/16 12:05:33;;;;;;;;;27.00;22.33;;;;;11.69;61.36;101969.03;4897133;28;52802;-91
2021/11/16 12:07:58;;;;;;;;;25.33;20.67;;;;;11.63;60.89;101961.69;4894471;29;45395;-91
2021/11/16 12:10:23;;;;;;;;;23.33;22.00;;;;;11.69;61.31;101966.41;4875243;28;53811;-89
2021/11/16 12:12:50;;;;;;;;;31.00;29.75;;;;;11.71;60.95;101967.41;4879502;28;48319;-89
2021/11/16 12:15:19;;;;;;;;;32.75;25.75;;;;;11.77;61.45;101972.13;4876578;28;45884;-90
2021/11/16 12:17:53;;;;;;;;;30.67;23.67;;;;;11.79;60.65;101963.53;4917524;28;45896;-90
2021/11/16 12:20:42;;;;;;;;;26.00;22.67;;;;;11.83;61.10;101962.88;4920217;28;51074;-89
2021/11/16 12:23:14;;;;;;;;;26.00;20.67;;;;;11.84;60.61;101951.56;4902649;28;47928;-89
2021/11/16 12:25:41;;;;;;;;;22.67;20.00;;;;;11.85;61.02;101950.72;4909766;28;45616;-90
2021/11/16 12:28:26;;;;;;;;;20.00;19.00;;;;;11.92;61.05;101946.75;4918583;28;45482;-90
2021/11/16 12:30:52;;;;;;;;;27.25;23.50;;;;;11.96;60.84;101934.66;4935224;28;47063;-90
2021/11/16 12:33:38;;;;;;;;;25.50;22.25;;;;;12.09;60.64;101945.91;4934768;28;45561;-90
2021/11/16 12:36:05;;;;;;;;;26.00;21.00;;;;;12.12;60.30;101936.47;4929757;28;45351;-90
2021/11/16 12:38:39;;;;;;;;;23.33;21.33;;;;;12.21;60.34;101927.34;4917830;28;45459;-89
2021/11/16 12:41:34;;;;;;;;;26.50;19.00;;;;;12.25;60.15;101930.22;4925119;28;45703;-90
2021/11/16 12:44:01;;;;;;;;;19.67;17.00;;;;;12.26;59.31;101920.63;4910063;28;47509;-89
2021/11/16 12:46:29;;;;;;;;;22.67;20.00;;;;;12.27;59.93;101920.69;4927577;28;45561;-88
2021/11/16 12:48:56;;;;;;;;;28.00;24.00;;;;;12.23;59.79;101913.44;4919312;28;45564;-89
2021/11/16 12:51:21;;;;;;;;;25.00;22.67;;;;;12.23;59.68;101921.34;4932656;28;45539;-88
2021/11/16 12:53:54;;;;;;;;;17.75;17.25;;;;;12.18;59.29;101912.28;4953930;28;46058;-89
2021/11/16 12:56:42;;;;;;;;;21.67;20.67;;;;;12.17;59.61;101915.72;4935621;28;45493;-89
2021/11/16 12:59:09;;;;;;;;;24.00;22.00;;;;;12.13;59.69;101917.28;4945702;28;45501;-88
2021/11/16 13:01:54;;;;;;;;;24.67;21.33;;;;;12.12;60.01;101915.41;4917563;28;45687;-88
2021/11/16 13:04:50;;;;;;;;;21.00;17.33;;;;;12.13;59.61;101912.00;4934892;28;45629;-88
2021/11/16 13:07:20;;;;;;;;;18.00;17.67;;;;;12.09;59.19;101914.31;4926063;28;46319;-88
2021/11/16 13:10:00;;;;;;;;;23.67;18.33;;;;;12.02;59.90;101919.25;4918298;28;45340;-88
2021/11/16 13:12:39;;;;;;;;;20.00;16.67;;;;;11.95;59.20;101910.09;4954737;28;45364;-89
2021/11/16 13:15:08;;;;;;;;;22.00;16.00;;;;;11.90;59.93;101910.63;4922873;28;45572;-88
2021/11/16 13:17:43;;;;;;;;;25.67;20.33;;;;;11.91;59.78;101910.72;4917266;28;45292;-87
2021/11/16 13:20:13;;;;;;;;;26.33;19.33;;;;;11.87;59.60;101913.06;4941625;28;45458;-88
2021/11/16 13:22:47;;;;;;;;;26.00;17.67;;;;;11.85;60.20;101907.75;4931139;28;45387;-88
2021/11/16 13:25:40;;;;;;;;;21.00;19.33;;;;;11.83;59.95;101920.78;4933831;28;46638;-87
2021/11/16 13:28:07;;;;;;;;;20.33;16.00;;;;;11.80;59.89;101920.59;4943432;28;45470;-88
2021/11/16 13:30:32;;;;;;;;;24.33;18.67;;;;;11.75;60.10;101910.63;4932329;28;45368;-88
2021/11/16 13:32:58;;;;;;;;;19.33;17.67;;;;;11.73;60.04;101900.91;4919844;28;68086;-88
2021/11/16 13:35:23;;;;;;;;;19.00;17.33;;;;;11.74;60.47;101909.72;4917080;28;45489;-88
2021/11/16 13:37:52;;;;;;;;;16.67;16.33;;;;;11.69;60.45;101908.53;4917065;28;73342;-88
2021/11/16 13:40:23;;;;;;;;;28.00;21.00;;;;;11.66;60.27;101906.63;4918234;28;45461;-88
2021/11/16 13:42:51;;;;;;;;;20.33;17.00;;;;;11.67;59.85;101911.09;4918049;28;45516;-88
2021/11/16 13:45:16;;;;;;;;;19.33;15.67;;;;;11.61;58.77;101905.44;4916196;28;45554;-88
2021/11/16 13:47:47;;;;;;;;;23.33;17.33;;;;;11.54;59.30;101898.94;4915746;28;45550;-88
2021/11/16 13:50:13;;;;;;;;;22.33;16.67;;;;;11.49;59.86;101898.63;4921633;28;45552;-88
2021/11/16 13:52:46;;;;;;;;;21.00;18.00;;;;;11.47;59.60;101888.84;4934129;28;45528;-88
2021/11/16 13:55:17;;;;;;;;;16.33;16.33;;;;;11.45;60.07;101891.38;4918788;28;46073;-89
2021/11/16 13:57:45;;;;;;;;;22.67;17.00;;;;;11.40;60.20;101884.94;4949596;28;45659;-89
2021/11/16 14:00:13;;;;;;;;;18.67;15.00;;;;;11.43;60.63;101889.47;4924337;28;45491;-88
2021/11/16 14:02:40;;;;;;;;;15.33;14.33;;;;;11.43;60.55;101890.38;4916870;28;45714;-89
2021/11/16 14:05:07;;;;;;;;;16.67;14.33;;;;;11.43;61.14;101877.25;4917888;28;46977;-89
2021/11/16 14:07:33;;;;;;;;;22.67;19.00;;;;;11.42;60.92;101880.69;4918717;28;45707;-89
2021/11/16 14:10:10;;;;;;;;;19.33;16.00;;;;;11.42;60.42;101887.66;4918215;28;45864;-89
2021/11/16 14:12:35;;;;;;;;;19.33;16.00;;;;;11.37;60.78;101879.50;4932490;28;45441;-88
2021/11/16 14:15:01;;;;;;;;;26.33;19.33;;;;;11.39;60.97;101888.41;4900471;28;48280;-89
2021/11/16 14:17:27;;;;;;;;;21.67;17.00;;;;;11.38;60.89;101894.47;4919307;28;45635;-88
2021/11/16 14:19:53;;;;;;;;;19.33;15.33;;;;;11.37;59.98;101887.38;4920931;28;50988;-88
2021/11/16 14:22:41;;;;;;;;;21.00;16.33;;;;;11.33;60.36;101886.31;4921791;28;45599;-88
2021/11/16 14:25:20;;;;;;;;;17.67;14.67;;;;;11.34;61.09;101895.09;4901615;28;47120;-87
2021/11/16 14:27:46;;;;;;;;;18.33;16.00;;;;;11.33;61.12;101890.66;4917341;28;45541;-89
2021/11/16 14:30:13;;;;;;;;;21.33;17.33;;;;;11.31;61.08;101894.91;4915995;28;45420;-88
2021/11/16 14:32:38;;;;;;;;;18.67;16.00;;;;;11.33;61.07;101901.16;4917547;28;45377;-88
2021/11/16 14:35:18;;;;;;;;;18.00;16.00;;;;;11.28;61.81;101903.50;4926096;28;48543;-88
2021/11/16 14:37:50;;;;;;;;;19.00;16.67;;;;;11.28;61.67;101896.53;4914729;28;45834;-89
2021/11/16 14:40:18;;;;;;;;;24.67;16.33;;;;;11.26;61.46;101899.88;4928618;28;45541;-89
2021/11/16 14:42:44;;;;;;;;;18.33;18.33;;;;;11.23;61.70;101900.59;4922262;28;45469;-90
2021/11/16 14:45:09;;;;;;;;;23.33;15.67;;;;;11.20;61.65;101900.41;4933044;28;70315;-89
2021/11/16 14:47:38;;;;;;;;;19.25;19.00;;;;;11.24;60.66;101899.78;4908338;28;45406;-89
2021/11/16 14:50:05;;;;;;;;;16.00;14.67;;;;;11.20;61.60;101896.88;4914853;28;49932;-89
2021/11/16 14:52:32;;;;;;;;;21.33;17.67;;;;;11.15;60.48;101888.72;4917481;28;45566;-89
2021/11/16 14:55:07;;;;;;;;;17.00;17.00;;;;;11.11;61.36;101895.47;4932627;28;45608;-89
2021/11/16 14:57:33;;;;;;;;;16.67;14.67;;;;;11.12;61.49;101894.69;4905727;28;46225;-89
2021/11/16 15:00:14;;;;;;;;;25.00;18.00;;;;;11.07;62.20;101872.47;4914801;28;45463;-89
2021/11/16 15:02:40;;;;;;;;;21.33;18.00;;;;;11.09;62.03;101883.06;4931884;28;45399;-89
2021/11/16 15:05:08;;;;;;;;;17.33;16.33;;;;;11.08;61.97;101878.63;4911770;28;72732;-89
2021/11/16 15:07:34;;;;;;;;;17.00;15.00;;;;;11.08;62.27;101882.16;4918756;28;45593;-90
2021/11/16 15:10:02;;;;;;;;;15.33;15.33;;;;;11.06;62.64;101878.53;4933659;28;45583;-89
2021/11/16 15:12:27;;;;;;;;;20.00;18.25;;;;;11.09;62.77;101891.84;4917198;28;45531;-89
2021/11/16 15:14:54;;;;;;;;;23.00;17.00;;;;;11.08;63.00;101899.66;4916782;28;45765;-89
2021/11/16 15:17:20;;;;;;;;;22.00;14.00;;;;;11.09;63.28;101898.81;4922380;28;45697;-89
2021/11/16 15:20:02;;;;;;;;;23.67;18.00;;;;;11.04;62.42;101890.66;4920116;28;45447;-88
2021/11/16 15:22:32;;;;;;;;;25.25;18.00;;;;;10.88;62.80;101862.53;4945331;23;47347;-96
2021/11/16 15:25:13;;;;;;;;;25.25;20.25;;;;;10.81;62.82;101858.63;5123112;23;47698;-96
2021/11/16 15:27:38;;;;;;;;;28.75;21.25;;;;;10.98;63.08;101890.31;5004502;23;45629;-95
2021/11/16 15:30:07;;;;;;;;;25.00;20.67;;;;;10.99;63.01;101889.47;4935384;28;58695;-95
2021/11/16 15:32:33;;;;;;;;;25.33;19.00;;;;;10.94;63.11;101895.34;4933877;28;45519;-95
2021/11/16 15:34:58;;;;;;;;;22.00;18.00;;;;;10.85;63.11;101876.38;4924448;28;47085;-94
2021/11/16 15:37:28;;;;;;;;;22.75;20.50;;;;;10.91;63.10;101891.63;4917258;28;57385;-93
2021/11/16 15:40:10;;;;;;;;;27.00;19.00;;;;;10.87;63.37;101890.53;4896004;28;45371;-92
2021/11/16 15:42:35;;;;;;;;;26.00;20.50;;;;;10.84;63.69;101892.97;4940313;28;45501;-94
2021/11/16 15:45:10;;;;;;;;;19.75;18.25;;;;;10.83;63.42;101884.16;4904998;28;46979;-93
2021/11/16 15:47:54;;;;;;;;;30.00;22.50;;;;;10.84;63.19;101891.25;4909784;28;46107;-93
2021/11/16 15:50:34;;;;;;;;;24.67;19.00;;;;;10.84;64.36;101887.72;4925568;28;45424;-89
2021/11/16 15:58:55;;;;;;;;;26.25;25.25;;;;;10.88;63.73;101887.09;4934939;28;45505;-95
2021/11/16 16:01:28;;;;;;;;;25.00;22.50;;;;;10.88;64.13;101887.09;4897610;28;45585;-89
2021/11/16 16:03:57;;;;;;;;;16.00;14.25;;;;;10.89;63.90;101895.88;4930484;28;45510;-88
2021/11/16 16:06:26;;;;;;;;;24.25;20.00;;;;;10.86;63.79;101890.44;4926825;28;46314;-89
2021/11/16 16:08:58;;;;;;;;;27.25;24.00;;;;;10.86;63.99;101890.44;4947583;28;50710;-89
2021/11/16 16:11:31;;;;;;;;;25.50;22.50;;;;;10.84;63.94;101885.09;4935033;28;45405;-88
2021/11/16 16:13:58;;;;;;;;;24.00;21.67;;;;;10.83;64.20;101883.25;4935899;28;45509;-89
2021/11/16 16:16:24;;;;;;;;;28.75;22.75;;;;;10.84;64.02;101887.72;4907091;28;47400;-89
2021/11/16 16:18:51;;;;;;;;;27.00;21.75;;;;;10.79;63.59;101884.81;4935373;28;45718;-89
2021/11/16 16:21:17;;;;;;;;;26.50;24.25;;;;;10.80;64.20;101891.84;4919355;28;45613;-89
2021/11/16 16:23:47;;;;;;;;;23.00;18.67;;;;;10.80;64.00;101886.59;4921847;28;45425;-89
2021/11/16 16:26:16;;;;;;;;;30.33;23.00;;;;;10.79;64.04;101887.44;4935396;28;46275;-89
2021/11/16 16:28:50;;;;;;;;;20.67;20.00;;;;;10.83;64.10;101883.25;4936465;28;45406;-89
2021/11/16 16:31:15;;;;;;;;;27.67;20.33;;;;;10.80;63.65;101883.06;4920695;28;45449;-89
2021/11/16 16:33:41;;;;;;;;;29.00;22.33;;;;;10.80;64.30;101890.94;4918351;28;45507;-89
2021/11/16 16:36:06;;;;;;;;;18.00;16.67;;;;;10.80;64.40;101890.94;4936096;28;45646;-88
2021/11/16 16:38:32;;;;;;;;;26.67;18.33;;;;;10.77;64.61;101889.03;4918171;28;64985;-88
2021/11/16 16:40:57;;;;;;;;;27.00;22.00;;;;;10.80;64.68;101898.81;4919497;28;66922;-88
2021/11/16 16:43:23;;;;;;;;;16.33;16.00;;;;;10.81;64.39;101892.75;4919683;28;45646;-89
2021/11/16 16:45:48;;;;;;;;;20.33;18.00;;;;;10.83;64.31;101894.69;4950986;28;45502;-89
2021/11/16 16:48:14;;;;;;;;;23.00;18.67;;;;;10.80;64.52;101889.22;4918184;28;45415;-88
2021/11/16 16:50:40;;;;;;;;;21.67;14.67;;;;;10.83;64.47;101897.31;4904720;28;63426;-89
2021/11/16 16:53:05;;;;;;;;;20.67;14.67;;;;;10.83;64.22;101894.69;4918291;28;45527;-89
2021/11/16 16:55:31;;;;;;;;;20.00;17.00;;;;;10.81;64.11;101901.56;4919268;28;45968;-89
2021/11/16 16:57:57;;;;;;;;;23.75;19.25;;;;;10.76;64.23;101892.47;4917948;28;45528;-89
2021/11/16 17:00:23;;;;;;;;;31.00;22.00;;;;;10.79;64.78;101902.28;4955801;28;45494;-89
2021/11/16 17:02:49;;;;;;;;;23.00;21.33;;;;;10.78;64.37;101909.25;4948684;28;45340;-89
2021/11/16 17:05:15;;;;;;;;;27.67;21.33;;;;;10.78;63.92;101901.34;4949463;28;45533;-90
2021/11/16 17:07:40;;;;;;;;;30.00;21.00;;;;;10.77;64.28;101901.28;4929675;28;44827;-89
2021/11/16 17:10:06;;;;;;;;;28.50;24.00;;;;;10.73;65.04;101903.69;4924221;28;55055;-83
2021/11/16 17:12:32;;;;;;;;;23.00;18.33;;;;;10.70;64.72;101903.50;4936487;28;44812;-88
2021/11/16 17:14:57;;;;;;;;;21.75;20.00;;;;;10.70;65.13;101895.63;4935905;28;46132;-88
2021/11/16 17:17:27;;;;;;;;;26.25;18.25;;;;;10.73;64.85;101900.16;4920303;28;45397;-88
2021/11/16 17:19:52;;;;;;;;;22.33;20.33;;;;;10.72;64.94;101899.25;4935627;28;45462;-89
2021/11/16 17:22:18;;;;;;;;;23.75;19.25;;;;;10.73;64.68;101898.44;4919199;28;68486;-89
2021/11/16 17:24:43;;;;;;;;;25.75;20.25;;;;;10.71;64.97;101905.31;4932260;28;60273;-89
2021/11/16 17:27:10;;;;;;;;;22.00;20.25;;;;;10.74;64.97;101907.25;4935762;28;45371;-90
2021/11/16 17:29:35;;;;;;;;;25.00;21.33;;;;;10.72;64.54;101901.00;4919293;28;45783;-89
2021/11/16 17:32:01;;;;;;;;;25.33;22.67;;;;;10.71;65.23;101899.16;4919992;28;46206;-89
2021/11/16 17:34:26;;;;;;;;;20.25;19.25;;;;;10.76;64.93;101909.94;4905198;28;47262;-88
2021/11/16 17:36:51;;;;;;;;;24.75;22.75;;;;;10.77;64.92;101911.78;4932069;28;73759;-89
2021/11/16 17:39:17;;;;;;;;;24.67;17.33;;;;;10.76;64.92;101905.63;4918894;28;45328;-89
2021/11/16 17:41:42;;;;;;;;;18.33;16.67;;;;;10.76;64.63;101905.63;4930094;28;45511;-89
2021/11/16 17:44:08;;;;;;;;;22.33;18.00;;;;;10.77;64.65;101920.53;4918873;28;45700;-88
2021/11/16 17:46:34;;;;;;;;;25.67;23.33;;;;;10.74;64.77;101912.50;4933651;28;45702;-89
2021/11/16 17:49:02;;;;;;;;;22.33;17.67;;;;;10.73;65.01;101908.94;4918913;28;45373;-88
2021/11/16 17:51:29;;;;;;;;;24.00;19.33;;;;;10.75;65.02;101910.75;4934124;28;45899;-89
2021/11/16 17:53:55;;;;;;;;;29.75;22.50;;;;;10.77;64.82;101904.78;4920724;28;45767;-88
2021/11/16 17:56:20;;;;;;;;;25.50;19.75;;;;;10.69;64.96;101901.69;4917645;28;45570;-88
2021/11/16 17:58:46;;;;;;;;;24.00;20.67;;;;;10.70;65.25;101894.72;4918514;28;45577;-88
2021/11/16 18:01:13;;;;;;;;;29.75;23.50;;;;;10.73;65.21;101905.41;4919127;28;45824;-89
2021/11/16 18:03:47;;;;;;;;;31.50;23.75;;;;;10.77;65.16;101903.91;4918002;28;48698;-88
2021/11/16 18:08:54;;;;;;;;;31.33;24.33;;;;;10.79;64.85;101891.78;4937891;28;45422;-88
2021/11/16 18:11:22;;;;;;;;;27.00;23.00;;;;;10.80;64.84;101888.31;4919044;28;45541;-88
2021/11/16 18:13:48;;;;;;;;;25.50;22.25;;;;;10.76;65.12;101884.59;4934529;28;45501;-88
2021/11/16 18:16:13;;;;;;;;;27.75;20.50;;;;;10.80;65.04;101886.59;4905369;28;46075;-89
2021/11/16 18:18:40;;;;;;;;;20.75;18.25;;;;;10.79;65.13;101887.44;4932497;28;70304;-88
2021/11/16 18:21:06;;;;;;;;;21.25;18.00;;;;;10.80;64.82;101885.69;4935561;28;45453;-89
2021/11/16 18:23:31;;;;;;;;;23.75;21.75;;;;;10.78;64.81;101871.56;4916269;28;47555;-89
2021/11/16 18:25:57;;;;;;;;;35.00;26.50;;;;;10.79;64.89;101876.00;4946272;28;45612;-88
2021/11/16 18:28:23;;;;;;;;;23.75;23.00;;;;;10.79;65.13;101889.16;4934044;28;45501;-88
2021/11/16 18:30:51;;;;;;;;;33.25;27.25;;;;;10.77;65.40;101877.63;4932350;28;45576;-88
2021/11/16 18:33:16;;;;;;;;;25.25;22.25;;;;;10.82;65.73;101891.97;4918359;28;45474;-88
2021/11/16 18:35:42;;;;;;;;;22.75;20.50;;;;;10.81;65.65;101877.91;4917269;28;64922;-88
2021/11/16 18:38:08;;;;;;;;;28.67;22.67;;;;;10.81;65.54;101877.91;4920169;28;47297;-87
2021/11/16 18:40:48;;;;;;;;;23.67;22.00;;;;;10.83;65.58;101878.91;4903265;28;45635;-88
2021/11/16 18:43:22;;;;;;;;;34.25;29.50;;;;;10.86;65.48;101882.53;4923303;28;46275;-92
2021/11/16 18:48:25;;;;;;;;;31.00;24.75;;;;;10.91;66.02;101878.47;4940745;28;45624;-89
2021/11/16 18:50:50;;;;;;;;;33.00;25.00;;;;;10.91;65.91;101876.78;4916932;28;45518;-90
2021/11/16 18:53:17;;;;;;;;;48.25;37.25;;;;;10.98;65.54;101883.31;4928395;28;62537;-91
2021/11/16 18:55:50;;;;;;;;;30.25;24.50;;;;;10.92;64.94;101875.06;4914307;28;45519;-90
2021/11/16 18:58:16;;;;;;;;;35.00;26.75;;;;;10.92;65.03;101880.31;4923465;28;45497;-90
2021/11/16 19:00:42;;;;;;;;;27.25;23.75;;;;;10.88;65.98;101873.94;4936543;28;45384;-91